Eureka (88M)
Eureka, MT
Field Elevation: 2667
Lat: 48°58.43N  Long: 115°04.58W
CTAF/Unicom Freq: 122.9000
   
     For Weather-by-Phone, call 406-889-3366
Weather Advisories
2017-05-24   21:26 Z
Altimeter 29.57" Hg
Wind 230° @ 15 KT
Gusts 18 KT
Visibility 10 SM
Temperature 12° C (54° F)
Dewpoint -3° C (27° F)
Relative Humidity 33%
Density Altitude --
Condensation Altitude 10,400 feet
Wind and Runways
Indicated Runway = 19
Headwind = 12 kt
Crosswind = 10 kt
History
 
 
 
More Info
NOAA Forecast
 
 
About Us
Belfort Instrument
 
 
FAA Disclaimer: The data displayed is for advisory purposes only and is not to be used for flight planning or operations. For official data, please call 406-889-3366 to hear the current automated AWOS voice message.
  METAR 88M 242126Z AUTO 23015G18KT 10 SM 12/M03 A2957